Startpagina
METAR-TAF:

METAR-TAF

Vliegvelden :

Productieplatform

Euro, Nederland

breedte: 51-59-52N, lengte: 3-16-30E, hoogte: 18 m

Actueel weer

Dit bericht is 41 minuten geleden gemaakt, om 09:55 UTC
Wind 26 kt uit het zuidzuidwesten
Temperatuur 18°C
Vochtigheid 88%
Druk 1015 hPa
Zicht 10 km of meer

METAR: EHSA 190955Z AUTO 20026KT 9999 ///////// 18/16 Q1015 W17/H12

Tijdstip: 12:36 (10:36 UTC)


TAF: ontbreekt

Waarnemingen en weersverwachtingen van meer dan 4000 vliegvelden (METAR en TAF).

De beschikbare stations zijn de gele en rode punten op de kaart.

Ga met uw muis naar het station om de naam te zien.

Klik dan om waarnemingen en weersverwachtingen te zien.

kaart wijzigen: klik op de groene knoppen met een zwart kruis om in te zoomen, op de groene knop met een streepje om uit te zoomen of op de groene pijlen voor aangrenzende kaarten.


METAR-TAF: